Terminal Aerodrome Forecast
Issued by NWS Cleveland, OH

Home | Current Version | Previous Version | Graphics & Text | Print | Product List | Glossary On
Versions: 1 2 3 4 5 6 7 8 9 10 11 12 13 14 15
760
FTUS41 KCLE 161728
TAFYNG
TAF
KYNG 161728Z 1618/1718 30007KT P6SM -SHSN OVC035
      TEMPO 1618/1620 5SM -SHSN OVC025
     FM162100 30006KT P6SM OVC035
     FM170200 VRB02KT P6SM SCT070
     FM171200 16006KT P6SM BKN250=

USA.gov is the U.S. government's official web portal to all federal, state and local government web resources and services.